Time;durP1;ratioP1;P1;durP2;ratioP2;P2;SDS_P1;SDS_P2;PMS_P1;PMS_P2;Temp;Humidity;BMP_temperature;BMP_pressure;BME280_temperature;BME280_humidity;BME280_pressure;Samples;Min_cycle;Max_cycle;Signal;HPM_P1;HPM_P2
2023/03/19 00:02:31;;;;;;;19.40;9.63;;;;;;;5.87;75.49;101272.00;124718;1099;104192;-76
2023/03/19 00:05:03;;;;;;;19.50;9.97;;;;;;;5.88;75.66;101274.71;124694;1099;104181;-76
2023/03/19 00:07:34;;;;;;;19.13;9.07;;;;;;;5.90;75.80;101274.81;124298;1099;101878;-76
2023/03/19 00:10:06;;;;;;;19.40;9.53;;;;;;;5.88;75.81;101266.00;124338;1099;101829;-75
2023/03/19 00:12:37;;;;;;;20.50;9.93;;;;;;;5.85;75.76;101258.88;124302;1099;104247;-76
2023/03/19 00:15:12;;;;;;;20.27;9.90;;;;;;;5.88;75.88;101266.00;124227;1102;104239;-75
2023/03/19 00:17:44;;;;;;;20.25;9.50;;;;;;;5.89;75.84;101259.97;124326;1099;104172;-76
2023/03/19 00:20:17;;;;;;;18.43;8.73;;;;;;;5.89;75.91;101257.37;124607;1099;104181;-76
2023/03/19 00:22:48;;;;;;;17.40;9.00;;;;;;;5.86;75.80;101260.69;124721;1099;102275;-76
2023/03/19 00:25:19;;;;;;;19.10;8.85;;;;;;;5.84;75.78;101262.27;124222;1099;104256;-76
2023/03/19 00:27:51;;;;;;;20.03;9.13;;;;;;;5.84;75.55;101261.38;124274;1101;104304;-77
2023/03/19 00:30:23;;;;;;;19.63;9.10;;;;;;;5.86;75.81;101259.77;124271;1100;104667;-75
2023/03/19 00:32:55;;;;;;;19.00;9.33;;;;;;;5.90;75.84;101256.58;124290;1099;104185;-76
2023/03/19 00:35:26;;;;;;;20.23;8.83;;;;;;;5.90;75.84;101256.58;124339;1099;101877;-77
2023/03/19 00:37:57;;;;;;;20.50;9.30;;;;;;;5.85;75.94;101255.38;124322;1099;104205;-77
2023/03/19 00:40:29;;;;;;;20.43;9.53;;;;;;;5.79;75.92;101253.25;124269;1099;104184;-76
2023/03/19 00:43:00;;;;;;;19.27;9.10;;;;;;;5.76;75.84;101251.38;124249;1099;101912;-77
2023/03/19 00:45:32;;;;;;;22.33;9.27;;;;;;;5.75;76.09;101251.27;124610;1099;104172;-75
2023/03/19 00:48:03;;;;;;;19.13;9.07;;;;;;;5.73;76.26;101258.98;124404;1099;104162;-76
2023/03/19 00:50:35;;;;;;;18.20;8.10;;;;;;;5.72;76.10;101249.34;124278;1099;104245;-77
2023/03/19 00:53:06;;;;;;;18.63;7.70;;;;;;;5.73;76.10;101247.63;124248;1099;104255;-77
2023/03/19 00:55:37;;;;;;;22.50;9.25;;;;;;;5.70;76.01;101250.95;124661;1099;104269;-76
2023/03/19 00:58:10;;;;;;;21.87;9.70;;;;;;;5.67;76.50;101244.62;124363;1099;102204;-76
2023/03/19 01:00:41;;;;;;;20.50;9.03;;;;;;;5.64;76.27;101242.73;124852;1099;102327;-78
2023/03/19 01:03:13;;;;;;;20.87;9.70;;;;;;;5.61;76.37;101239.00;124760;1099;101893;-76
2023/03/19 01:05:47;;;;;;;19.47;9.50;;;;;;;5.60;76.46;101239.81;124690;1099;104307;-76
2023/03/19 01:08:19;;;;;;;19.52;8.60;;;;;;;5.60;75.81;101245.02;124269;1099;101859;-76
2023/03/19 01:10:50;;;;;;;18.97;8.97;;;;;;;5.57;76.64;101245.70;124620;1099;101988;-77
2023/03/19 01:13:22;;;;;;;20.93;9.70;;;;;;;5.55;76.96;101242.11;124687;1099;101948;-77
2023/03/19 01:15:53;;;;;;;19.57;9.23;;;;;;;5.54;76.63;101237.69;124310;1099;101972;-76
2023/03/19 01:18:26;;;;;;;19.07;9.33;;;;;;;5.55;76.43;101231.70;124262;1099;104233;-75
2023/03/19 01:20:58;;;;;;;19.27;9.27;;;;;;;5.57;76.14;101224.88;124395;1099;104220;-76
2023/03/19 01:23:29;;;;;;;20.20;9.77;;;;;;;5.62;76.52;101233.00;124282;1099;104256;-76
2023/03/19 01:26:01;;;;;;;19.37;9.13;;;;;;;5.67;76.25;101231.59;124366;1099;104182;-76
2023/03/19 01:28:33;;;;;;;20.13;9.10;;;;;;;5.68;76.54;101234.30;124311;1099;102181;-77
2023/03/19 01:31:08;;;;;;;20.33;9.50;;;;;;;5.68;76.37;101230.81;124268;1099;104396;-76
2023/03/19 01:33:58;;;;;;;21.77;9.55;;;;;;;5.69;76.52;101224.81;124682;1099;104290;-78
2023/03/19 01:36:56;;;;;;;21.77;9.97;;;;;;;5.73;76.55;101226.80;124273;1099;104274;-77
2023/03/19 01:39:35;;;;;;;18.53;8.73;;;;;;;5.75;76.67;101220.91;124186;1099;104190;-76
2023/03/19 01:42:10;;;;;;;20.43;8.87;;;;;;;5.72;76.48;101222.42;124190;1100;104307;-76
2023/03/19 01:45:34;;;;;;;18.17;8.80;;;;;;;5.76;75.89;101227.93;124084;1101;108070;-76
2023/03/19 01:48:40;;;;;;;18.50;9.17;;;;;;;5.75;76.11;101233.92;124126;1102;104245;-76
2023/03/19 01:51:20;;;;;;;17.67;8.10;;;;;;;5.75;76.14;101231.33;124210;1099;104293;-75
2023/03/19 01:54:02;;;;;;;17.83;7.20;;;;;;;5.76;76.25;101237.42;124267;1099;104245;-76
2023/03/19 01:56:43;;;;;;;16.10;6.40;;;;;;;5.71;76.36;101231.02;124413;1099;104344;-78
2023/03/19 01:59:40;;;;;;;16.43;7.07;;;;;;;5.69;76.13;101228.31;124110;1099;104369;-75
2023/03/19 02:02:32;;;;;;;16.77;7.67;;;;;;;5.70;76.07;101216.18;124163;1099;102076;-75
2023/03/19 02:05:10;;;;;;;15.03;7.30;;;;;;;5.73;76.50;101225.12;124278;1099;104204;-75
2023/03/19 02:07:44;;;;;;;16.10;7.40;;;;;;;5.71;75.84;101218.89;124587;1099;104245;-75
2023/03/19 02:10:19;;;;;;;16.93;7.63;;;;;;;5.70;76.16;101223.99;124249;1099;104323;-75
2023/03/19 02:12:50;;;;;;;15.03;7.27;;;;;;;5.70;76.54;101219.70;124972;1099;102259;-76
2023/03/19 02:15:22;;;;;;;14.97;6.83;;;;;;;5.70;75.98;101219.70;124175;1099;104271;-75
2023/03/19 02:17:54;;;;;;;15.60;7.17;;;;;;;5.73;76.37;101222.52;124222;1099;104162;-75
2023/03/19 02:20:30;;;;;;;14.17;7.00;;;;;;;5.76;75.94;101227.93;124222;1099;104278;-75
2023/03/19 02:23:09;;;;;;;14.83;6.87;;;;;;;5.81;76.27;101216.89;124183;1099;101894;-75
2023/03/19 02:25:51;;;;;;;15.07;7.20;;;;;;;5.83;76.10;101221.42;124120;1099;104320;-75
2023/03/19 02:28:24;;;;;;;15.83;6.83;;;;;;;5.83;75.98;101213.61;124122;1100;101903;-75
2023/03/19 02:30:55;;;;;;;;;;;;;;;5.79;76.25;101224.61;124419;1099;102284;-75
2023/03/19 02:33:26;;;;;;;17.67;8.10;;;;;;;5.75;75.82;101220.02;124653;1099;104175;-75
2023/03/19 02:35:58;;;;;;;18.30;8.27;;;;;;;5.71;76.16;101213.68;124214;1099;102030;-75
2023/03/19 02:38:33;;;;;;;19.00;9.00;;;;;;;5.69;75.95;101215.29;124301;1099;101928;-75
2023/03/19 02:41:07;;;;;;;21.40;9.80;;;;;;;5.67;75.66;101216.91;124274;1099;104284;-75
2023/03/19 02:43:42;;;;;;;18.75;10.10;;;;;;;5.66;75.79;101217.69;124628;1098;104293;-75
2023/03/19 02:46:14;;;;;;;18.20;9.30;;;;;;;5.66;76.15;101215.08;124174;1099;104245;-75
2023/03/19 02:48:45;;;;;;;15.53;7.80;;;;;;;5.68;75.96;101215.19;124135;1099;101910;-75
2023/03/19 02:51:19;;;;;;;15.40;7.43;;;;;;;5.66;75.86;101216.80;124218;1099;101922;-75
2023/03/19 02:53:51;;;;;;;14.83;7.87;;;;;;;5.66;76.07;101207.27;124222;1099;104185;-75
2023/03/19 02:56:23;;;;;;;14.30;7.60;;;;;;;5.66;76.06;101211.59;124539;1098;104249;-76
2023/03/19 02:58:55;;;;;;;15.77;8.03;;;;;;;5.65;75.99;101218.48;124740;1099;102193;-76
2023/03/19 03:01:26;;;;;;;16.13;7.53;;;;;;;5.65;76.10;101218.48;124751;1099;104278;-76
2023/03/19 03:03:58;;;;;;;17.97;7.70;;;;;;;5.63;76.15;101217.48;124304;1099;104370;-76
2023/03/19 03:06:29;;;;;;;17.63;8.23;;;;;;;5.64;76.31;101224.50;124343;1099;104064;-75
2023/03/19 03:09:00;;;;;;;17.30;7.93;;;;;;;5.67;76.06;101223.79;124276;1099;104200;-75
2023/03/19 03:11:31;;;;;;;18.75;8.15;;;;;;;5.64;76.27;101221.91;124339;1099;102903;-76
2023/03/19 03:14:03;;;;;;;21.03;9.63;;;;;;;5.62;76.26;101231.29;124395;1099;104194;-75
2023/03/19 03:16:34;;;;;;;21.70;9.80;;;;;;;5.57;75.89;101223.17;124743;1099;104207;-75
2023/03/19 03:19:06;;;;;;;19.70;9.17;;;;;;;5.55;76.23;101227.38;124762;1099;101814;-75
2023/03/19 03:21:37;;;;;;;21.33;9.10;;;;;;;5.54;76.21;101235.09;124369;1099;103658;-76
2023/03/19 03:24:10;;;;;;;24.17;10.87;;;;;;;5.52;75.97;101229.77;124732;1099;101919;-75
2023/03/19 03:26:41;;;;;;;25.70;11.03;;;;;;;5.51;76.07;101229.67;124658;1099;104373;-75
2023/03/19 03:29:12;;;;;;;22.67;11.00;;;;;;;5.56;76.23;101228.27;124670;1099;104329;-75
2023/03/19 03:31:45;;;;;;;24.53;12.00;;;;;;;5.60;76.37;101227.69;124738;1099;104217;-75
2023/03/19 03:34:18;;;;;;;23.07;10.97;;;;;;;5.61;76.27;101226.91;124296;1099;104189;-76
2023/03/19 03:36:49;;;;;;;24.05;11.40;;;;;;;5.59;77.01;101238.89;124356;1099;101810;-76
2023/03/19 03:39:21;;;;;;;25.77;11.90;;;;;;;5.58;76.34;101231.91;124756;1099;104230;-76
2023/03/19 03:41:52;;;;;;;24.17;11.43;;;;;;;5.56;76.32;101236.08;124686;1099;104101;-76
2023/03/19 03:44:24;;;;;;;22.47;11.00;;;;;;;5.53;76.14;101233.27;124369;1099;102305;-76
2023/03/19 03:46:55;;;;;;;23.77;11.33;;;;;;;5.53;76.26;101238.48;124342;1099;104677;-75
2023/03/19 03:49:26;;;;;;;23.60;11.43;;;;;;;5.53;76.68;101233.27;124387;1099;101881;-76
2023/03/19 03:51:58;;;;;;;24.57;11.17;;;;;;;5.51;76.32;101232.27;124393;1099;104185;-76
2023/03/19 03:54:29;;;;;;;23.80;12.00;;;;;;;5.49;76.33;101229.57;124296;1099;104226;-76
2023/03/19 03:57:00;;;;;;;23.37;11.53;;;;;;;5.50;76.78;101230.46;124388;1099;104307;-75
2023/03/19 03:59:32;;;;;;;26.93;12.23;;;;;;;5.51;76.96;101229.67;124788;1099;102780;-76
2023/03/19 04:02:05;;;;;;;28.20;13.20;;;;;;;5.50;77.02;101220.05;124715;1099;104204;-76
2023/03/19 04:04:37;;;;;;;32.73;15.83;;;;;;;5.45;77.20;101221.45;124270;1099;101918;-75
2023/03/19 04:07:08;;;;;;;31.50;16.40;;;;;;;5.42;77.17;101224.73;124240;1099;102147;-76
2023/03/19 04:09:49;;;;;;;32.97;16.30;;;;;;;5.40;77.23;101227.23;124155;1099;104073;-75
2023/03/19 04:12:21;;;;;;;36.77;17.87;;;;;;;5.39;77.30;101228.05;124209;1099;104265;-75
2023/03/19 04:14:53;;;;;;;37.80;19.00;;;;;;;5.28;77.35;101205.58;124218;1100;104265;-76
2023/03/19 04:17:25;;;;;;;36.40;18.35;;;;;;;5.40;77.20;101226.34;124710;1099;103342;-75
2023/03/19 04:19:56;;;;;;;37.57;17.60;;;;;;;5.41;77.40;101233.36;124480;1099;104316;-75
2023/03/19 04:22:32;;;;;;;42.17;19.20;;;;;;;5.42;77.59;101236.85;124798;1099;104163;-76
2023/03/19 04:25:07;;;;;;;36.97;17.83;;;;;;;5.42;77.74;101232.54;124715;1099;103716;-75
2023/03/19 04:27:39;;;;;;;38.87;18.47;;;;;;;5.42;78.09;101229.94;124219;1099;101919;-76
2023/03/19 04:30:14;;;;;;;37.70;18.87;;;;;;;5.41;77.23;101235.96;124217;1099;104622;-75
2023/03/19 04:32:45;;;;;;;;;;;;;;;5.40;79.07;101234.15;124323;1099;101953;-75
2023/03/19 04:35:17;;;;;;;36.37;18.00;;;;;;;5.37;78.69;101231.34;124207;1099;104341;-75
2023/03/19 04:37:50;;;;;;;34.73;17.87;;;;;;;5.36;77.73;101238.25;124483;1099;101839;-76
2023/03/19 04:40:21;;;;;;;;;;;;;;;5.36;78.49;101239.93;124590;1098;104185;-76
2023/03/19 04:42:52;;;;;;;37.30;17.87;;;;;;;5.36;77.99;101245.13;124213;1099;104184;-76
2023/03/19 04:45:35;;;;;;;38.10;18.13;;;;;;;5.36;78.04;101239.93;124665;1099;104099;-75
2023/03/19 04:48:07;;;;;;;37.50;19.37;;;;;;;5.36;78.22;101240.85;124336;1099;104165;-75
2023/03/19 04:50:41;;;;;;;40.35;19.70;;;;;;;5.39;78.13;101237.53;124261;1099;104334;-75
2023/03/19 04:53:15;;;;;;;37.00;18.70;;;;;;;5.41;78.06;101246.38;124578;1099;101929;-76
2023/03/19 04:55:47;;;;;;;39.23;19.43;;;;;;;5.45;77.81;101237.06;124599;1099;104233;-77
2023/03/19 04:58:23;;;;;;;;;;;;;;;5.46;78.23;101237.17;124382;1099;104310;-75
2023/03/19 05:01:10;;;;;;;39.83;19.00;;;;;;;5.48;78.40;101239.88;124325;1099;104284;-77
2023/03/19 05:04:06;;;;;;;40.35;19.05;;;;;;;5.48;78.18;101247.69;124873;1099;102234;-76
2023/03/19 05:06:39;;;;;;;44.17;20.30;;;;;;;5.49;78.37;101246.90;124704;1099;104268;-76
2023/03/19 05:09:10;;;;;;;40.50;19.83;;;;;;;5.49;78.68;101241.69;124254;1099;104166;-76
2023/03/19 05:11:41;;;;;;;39.43;19.17;;;;;;;5.50;78.79;101240.87;124202;1099;104227;-75
2023/03/19 05:14:17;;;;;;;40.03;19.27;;;;;;;5.53;78.35;101246.28;124197;1099;104302;-75
2023/03/19 05:17:20;;;;;;;40.10;18.20;;;;;;;5.53;78.46;101243.69;124408;1099;104402;-74
2023/03/19 05:20:18;;;;;;;41.70;19.23;;;;;;;5.55;78.71;101243.00;124645;1099;101906;-75
2023/03/19 05:22:57;;;;;;;38.97;19.23;;;;;;;5.61;78.48;101246.81;124564;1099;104163;-75
2023/03/19 05:25:36;;;;;;;39.63;19.10;;;;;;;5.67;78.91;101247.22;124334;1099;104331;-74
2023/03/19 05:28:10;;;;;;;38.43;18.30;;;;;;;5.71;78.91;101239.72;124332;1099;104229;-74
2023/03/19 05:30:42;;;;;;;42.43;20.60;;;;;;;5.70;78.34;101240.55;124319;1100;101934;-73
2023/03/19 05:33:23;;;;;;;40.03;20.07;;;;;;;5.72;79.00;101244.14;124222;1099;104176;-73
2023/03/19 05:35:56;;;;;;;41.27;20.73;;;;;;;5.69;78.57;101241.33;124149;1099;104775;-73
2023/03/19 05:38:33;;;;;;;42.97;20.67;;;;;;;5.70;78.99;101245.75;124212;1100;104235;-73
2023/03/19 05:41:09;;;;;;;44.60;21.30;;;;;;;5.70;79.33;101252.64;124282;1099;104245;-73
2023/03/19 05:43:47;;;;;;;41.53;21.30;;;;;;;5.68;78.89;101251.64;125915;1098;104185;-74
2023/03/19 05:46:26;;;;;;;42.77;20.27;;;;;;;5.67;78.80;101250.75;124184;1099;104211;-74
2023/03/19 05:48:57;;;;;;;40.13;20.30;;;;;;;5.70;78.84;101253.56;124175;1099;101944;-74
2023/03/19 05:51:28;;;;;;;43.20;21.30;;;;;;;5.75;78.70;101252.16;124196;1099;104252;-74
2023/03/19 05:54:00;;;;;;;39.97;20.77;;;;;;;5.80;78.88;101260.28;124210;1099;104236;-74
2023/03/19 05:56:40;;;;;;;41.63;21.17;;;;;;;5.84;79.07;101256.17;124226;1099;104181;-75
2023/03/19 05:59:32;;;;;;;46.43;21.77;;;;;;;5.87;78.59;101261.58;124368;1099;102650;-74
2023/03/19 06:02:22;;;;;;;45.20;21.93;;;;;;;5.88;79.22;101268.61;124674;1099;102372;-74
2023/03/19 06:04:54;;;;;;;41.20;20.23;;;;;;;5.88;79.25;101263.40;124235;1099;104172;-74
2023/03/19 06:07:28;;;;;;;43.33;21.30;;;;;;;5.88;78.87;101271.22;124667;1099;104188;-74
2023/03/19 06:10:00;;;;;;;41.50;20.73;;;;;;;5.91;79.01;101271.42;124215;1099;104259;-74
2023/03/19 06:12:32;;;;;;;41.93;20.87;;;;;;;5.95;78.82;101265.59;124244;1099;102454;-73
2023/03/19 06:15:29;;;;;;;44.80;21.83;;;;;;;5.96;78.84;101266.52;124138;1099;104233;-73
2023/03/19 06:18:00;;;;;;;39.77;20.07;;;;;;;5.97;79.18;101269.26;124576;1099;104313;-73
2023/03/19 06:20:32;;;;;;;46.03;21.70;;;;;;;5.97;79.26;101269.26;124542;1099;104243;-73
2023/03/19 06:23:03;;;;;;;40.53;20.93;;;;;;;5.97;78.90;101264.05;124697;1099;104201;-73
2023/03/19 06:25:35;;;;;;;42.90;21.03;;;;;;;6.03;78.94;101260.92;124644;1099;101858;-74
2023/03/19 06:28:07;;;;;;;41.90;21.20;;;;;;;6.09;79.10;101261.33;124566;1099;104235;-73
2023/03/19 06:30:43;;;;;;;41.40;20.10;;;;;;;6.13;79.13;101267.67;124145;1099;102573;-74
2023/03/19 06:33:40;;;;;;;44.60;21.40;;;;;;;6.14;79.09;101267.77;124743;1099;102115;-73
2023/03/19 06:36:12;;;;;;;45.47;21.73;;;;;;;6.18;79.02;101266.25;124238;1099;104332;-73
2023/03/19 06:38:44;;;;;;;44.03;21.37;;;;;;;6.24;79.13;101267.55;124217;1099;104255;-74
2023/03/19 06:41:15;;;;;;;42.07;21.17;;;;;;;6.31;79.02;101266.27;124651;1098;117764;-75
2023/03/19 06:43:47;;;;;;;41.77;20.93;;;;;;;6.36;78.85;101259.64;124688;1099;104306;-75
2023/03/19 06:46:18;;;;;;;41.77;20.17;;;;;;;6.39;78.86;101265.05;124719;1099;104297;-75
2023/03/19 06:48:50;;;;;;;42.00;21.00;;;;;;;6.41;79.03;101266.05;124742;1099;104165;-74
2023/03/19 06:51:22;;;;;;;40.80;20.77;;;;;;;6.46;78.91;101264.63;124593;1099;103385;-74
2023/03/19 06:53:53;;;;;;;42.07;21.67;;;;;;;6.51;79.13;101264.92;124664;1099;101935;-75
2023/03/19 06:56:25;;;;;;;41.90;21.87;;;;;;;6.54;78.97;101262.52;124558;1099;104229;-74
2023/03/19 06:58:56;;;;;;;43.10;20.10;;;;;;;6.58;78.92;101261.91;124586;1099;104237;-73
2023/03/19 07:01:28;;;;;;;45.33;21.73;;;;;;;6.58;78.75;101250.59;124693;1098;105452;-74
2023/03/19 07:03:59;;;;;;;40.53;19.53;;;;;;;6.61;78.73;101259.50;124752;1099;101801;-74
2023/03/19 07:06:32;;;;;;;41.73;20.07;;;;;;;6.61;78.80;101256.89;124648;1098;101919;-74
2023/03/19 07:09:04;;;;;;;37.87;18.80;;;;;;;6.59;78.72;101265.41;124626;1099;104169;-75
2023/03/19 07:11:35;;;;;;;42.07;20.27;;;;;;;6.60;78.71;101272.45;124648;1099;104241;-74
2023/03/19 07:14:06;;;;;;;41.00;20.77;;;;;;;6.66;78.73;101270.23;124508;1099;104216;-73
2023/03/19 07:16:38;;;;;;;42.13;21.27;;;;;;;6.71;78.81;101270.52;124605;1099;101811;-73
2023/03/19 07:19:10;;;;;;;44.00;20.80;;;;;;;6.73;78.73;101262.00;124104;1099;104277;-73
2023/03/19 07:21:41;;;;;;;40.73;20.47;;;;;;;6.79;78.57;101265.00;124608;1099;104182;-73
2023/03/19 07:24:12;;;;;;;39.50;19.10;;;;;;;6.83;78.78;101264.36;124111;1099;104230;-73
2023/03/19 07:26:45;;;;;;;39.00;18.67;;;;;;;6.84;78.69;101262.68;124548;1099;104345;-72
2023/03/19 07:29:17;;;;;;;37.63;18.07;;;;;;;6.89;78.86;101261.25;124109;1099;104217;-73
2023/03/19 07:31:48;;;;;;;37.20;18.57;;;;;;;6.97;78.82;101267.84;124443;1099;104169;-73
2023/03/19 07:34:19;;;;;;;36.10;17.70;;;;;;;7.05;78.74;101264.82;124053;1099;103651;-73
2023/03/19 07:36:51;;;;;;;34.60;17.57;;;;;;;7.09;78.58;101267.72;124424;1099;101906;-74
2023/03/19 07:39:23;;;;;;;36.73;18.43;;;;;;;7.14;78.43;101261.06;124083;1102;104322;-74
2023/03/19 07:41:54;;;;;;;36.90;18.53;;;;;;;7.18;78.32;101267.36;124488;1099;104179;-74
2023/03/19 07:44:27;;;;;;;36.13;17.03;;;;;;;7.18;78.33;101259.53;124120;1102;102171;-73
2023/03/19 07:46:59;;;;;;;28.20;14.37;;;;;;;7.18;78.06;101263.06;124077;1099;104341;-74
2023/03/19 07:49:31;;;;;;;33.03;15.23;;;;;;;7.19;77.75;101267.45;124155;1099;104204;-74
2023/03/19 07:52:02;;;;;;;30.87;14.97;;;;;;;7.11;77.28;101268.70;124131;1099;101827;-74
2023/03/19 07:54:33;;;;;;;29.57;14.53;;;;;;;7.06;77.28;101274.43;124142;1099;104197;-73
2023/03/19 07:57:05;;;;;;;28.37;13.87;;;;;;;6.97;77.36;101265.23;124788;1099;104226;-74
2023/03/19 07:59:36;;;;;;;25.35;11.60;;;;;;;6.93;77.34;101270.16;124080;1099;104204;-74
2023/03/19 08:02:10;;;;;;;25.70;12.37;;;;;;;6.83;77.28;101264.36;124140;1099;104254;-73
2023/03/19 08:04:41;;;;;;;26.05;12.60;;;;;;;6.86;77.59;101266.28;124130;1099;104168;-74
2023/03/19 08:07:13;;;;;;;24.43;12.13;;;;;;;6.93;78.06;101263.22;124898;1099;101881;-74
2023/03/19 08:09:44;;;;;;;25.10;11.57;;;;;;;6.99;77.39;101266.22;124123;1099;104271;-73
2023/03/19 08:12:16;;;;;;;23.47;10.83;;;;;;;7.02;77.37;101269.02;125004;1099;104176;-74
2023/03/19 08:14:48;;;;;;;24.30;11.10;;;;;;;7.11;77.47;101271.31;124140;1099;104248;-73
2023/03/19 08:17:19;;;;;;;24.70;10.70;;;;;;;7.12;77.64;101267.91;124115;1099;103354;-73
2023/03/19 08:19:51;;;;;;;25.33;12.67;;;;;;;7.14;77.07;101268.89;124128;1099;101830;-73
2023/03/19 08:22:22;;;;;;;24.77;11.70;;;;;;;7.15;77.26;101267.17;125185;1099;104227;-74
2023/03/19 08:24:54;;;;;;;25.17;11.77;;;;;;;7.16;77.16;101262.05;124073;1099;104214;-75
2023/03/19 08:27:25;;;;;;;23.80;11.67;;;;;;;7.12;76.86;101270.52;124158;1099;104310;-74
2023/03/19 08:29:57;;;;;;;24.00;11.30;;;;;;;7.09;76.72;101265.11;124103;1099;104245;-73
2023/03/19 08:32:28;;;;;;;26.90;12.53;;;;;;;7.12;76.90;101274.81;124138;1099;104386;-73
2023/03/19 08:35:00;;;;;;;24.60;11.77;;;;;;;7.15;76.96;101273.31;124176;1099;102816;-73
2023/03/19 08:37:32;;;;;;;27.50;12.43;;;;;;;7.19;77.19;101269.17;124159;1099;104342;-73
2023/03/19 08:40:03;;;;;;;25.33;11.97;;;;;;;7.20;77.31;101274.49;124096;1099;102380;-74
2023/03/19 08:42:37;;;;;;;24.43;11.00;;;;;;;7.23;77.26;101278.09;124167;1099;102664;-74
2023/03/19 08:45:08;;;;;;;;;;;;;;;7.20;76.67;101276.22;124200;1099;104181;-75
2023/03/19 08:47:40;;;;;;;20.27;10.33;;;;;;;7.14;77.18;101271.50;124206;1099;103836;-74
2023/03/19 08:50:13;;;;;;;22.10;9.97;;;;;;;7.08;76.53;101271.13;124150;1099;104205;-74
2023/03/19 08:52:44;;;;;;;22.47;10.67;;;;;;;7.05;76.56;101270.93;124103;1099;101865;-74
2023/03/19 08:55:16;;;;;;;24.90;11.77;;;;;;;7.06;77.09;101263.98;124053;1099;101868;-73
2023/03/19 08:57:47;;;;;;;22.60;10.97;;;;;;;7.06;76.91;101267.52;124197;1099;104281;-74
2023/03/19 09:00:19;;;;;;;22.83;10.33;;;;;;;7.15;76.99;101264.56;124171;1099;104218;-74
2023/03/19 09:02:51;;;;;;;21.57;10.63;;;;;;;7.27;77.22;101259.20;124064;1099;104326;-73
2023/03/19 09:05:23;;;;;;;23.33;10.80;;;;;;;7.40;77.06;101261.73;124108;1099;104204;-73
2023/03/19 09:07:54;;;;;;;22.47;10.37;;;;;;;7.52;77.34;101266.81;124621;1099;104182;-75
2023/03/19 09:10:25;;;;;;;21.90;10.60;;;;;;;7.64;77.03;101259.71;124342;1099;101861;-74
2023/03/19 09:12:57;;;;;;;21.40;9.80;;;;;;;7.73;76.66;101255.03;124345;1099;104233;-75
2023/03/19 09:15:28;;;;;;;22.47;10.47;;;;;;;7.79;76.97;101258.81;124473;1098;101925;-74
2023/03/19 09:18:00;;;;;;;22.43;10.97;;;;;;;7.83;76.52;101255.58;124475;1099;104191;-74
2023/03/19 09:20:31;;;;;;;22.07;10.17;;;;;;;7.88;76.31;101259.35;124444;1099;104271;-74
2023/03/19 09:23:02;;;;;;;22.87;11.37;;;;;;;7.87;76.53;101255.85;124397;1098;102778;-74
2023/03/19 09:25:34;;;;;;;23.93;11.10;;;;;;;7.87;75.63;101252.34;124541;1099;102185;-75
2023/03/19 09:28:05;;;;;;;25.57;10.90;;;;;;;7.84;75.95;101254.78;124257;1099;101990;-73
2023/03/19 09:30:37;;;;;;;24.17;10.83;;;;;;;7.84;75.84;101258.28;124560;1099;104641;-74
2023/03/19 09:33:09;;;;;;;21.43;10.43;;;;;;;7.78;75.68;101254.42;124374;1099;104211;-75
2023/03/19 09:35:40;;;;;;;22.07;10.83;;;;;;;7.69;75.98;101253.04;124437;1099;104201;-74
2023/03/19 09:38:12;;;;;;;20.67;9.63;;;;;;;7.72;75.90;101241.88;124513;1099;101882;-75
2023/03/19 09:40:46;;;;;;;21.53;10.77;;;;;;;7.73;75.65;101243.70;124352;1099;104191;-75
2023/03/19 09:43:38;;;;;;;21.57;10.20;;;;;;;7.72;75.74;101232.32;124372;1099;104213;-74
2023/03/19 09:46:15;;;;;;;21.10;10.37;;;;;;;7.74;75.22;101235.03;124491;1099;104185;-75
2023/03/19 09:48:51;;;;;;;21.37;10.27;;;;;;;7.72;75.27;101231.43;124509;1099;104236;-73
2023/03/19 09:51:29;;;;;;;22.07;10.47;;;;;;;7.72;75.36;101231.43;124313;1099;104217;-74
2023/03/19 09:54:04;;;;;;;20.20;9.90;;;;;;;7.76;75.01;101233.42;124415;1099;104351;-73
2023/03/19 09:56:35;;;;;;;19.23;9.23;;;;;;;7.80;75.20;101224.94;124491;1099;104178;-74
2023/03/19 09:59:08;;;;;;;22.30;10.77;;;;;;;7.85;75.30;101223.52;124440;1099;104178;-74
2023/03/19 10:01:46;;;;;;;19.87;9.20;;;;;;;7.97;75.06;101219.80;124303;1099;102772;-73
2023/03/19 10:04:42;;;;;;;21.07;10.33;;;;;;;8.04;75.31;101216.70;124438;1099;104252;-74
2023/03/19 10:07:31;;;;;;;21.67;10.70;;;;;;;8.02;74.58;101216.63;124187;1099;104220;-73
2023/03/19 10:10:21;;;;;;;19.37;10.43;;;;;;;8.00;74.92;101210.41;124467;1099;104192;-74
2023/03/19 10:13:02;;;;;;;19.03;8.90;;;;;;;8.01;74.62;101206.08;124428;1099;104274;-75
2023/03/19 10:15:36;;;;;;;19.10;9.07;;;;;;;7.98;74.87;101211.12;124407;1099;101830;-75
2023/03/19 10:18:10;;;;;;;;;;;;;;;8.03;73.89;101205.36;124445;1099;101941;-76
2023/03/19 10:20:52;;;;;;;19.23;9.37;;;;;;;8.09;74.53;101204.83;124538;1099;102057;-73
2023/03/19 10:23:42;;;;;;;19.37;9.67;;;;;;;8.05;74.13;101200.22;124506;1099;104182;-74
2023/03/19 10:26:16;;;;;;;19.70;9.80;;;;;;;8.03;74.07;101196.63;124412;1099;110841;-74
2023/03/19 10:28:58;;;;;;;20.53;9.10;;;;;;;8.00;74.63;101192.13;124396;1099;104182;-75
2023/03/19 10:31:35;;;;;;;20.27;8.90;;;;;;;7.99;74.54;101184.19;124619;1099;104373;-75
2023/03/19 10:34:22;;;;;;;19.87;9.53;;;;;;;7.98;74.54;101191.14;124199;1099;101982;-75
2023/03/19 10:37:00;;;;;;;21.13;9.67;;;;;;;7.94;73.66;101180.42;124362;1099;104364;-74
2023/03/19 10:39:33;;;;;;;18.23;8.83;;;;;;;7.90;73.95;101185.48;124608;1098;102369;-74
2023/03/19 10:42:20;;;;;;;20.75;9.75;;;;;;;7.84;73.84;101181.62;124303;1099;104242;-75
2023/03/19 10:44:55;;;;;;;20.23;9.93;;;;;;;7.83;73.87;101171.97;124500;1099;104224;-75
2023/03/19 10:47:28;;;;;;;20.13;9.57;;;;;;;7.80;74.22;101166.56;124305;1099;104355;-74
2023/03/19 10:49:59;;;;;;;23.17;10.33;;;;;;;7.78;73.62;101169.09;124573;1099;102063;-75
2023/03/19 10:52:34;;;;;;;19.97;9.37;;;;;;;7.77;73.56;101172.50;124321;1099;101903;-73
2023/03/19 10:55:13;;;;;;;19.37;9.10;;;;;;;7.77;73.88;101163.77;124539;1099;105500;-75
2023/03/19 10:57:46;;;;;;;19.23;9.67;;;;;;;7.81;74.00;101158.81;124333;1099;104214;-75
2023/03/19 11:00:36;;;;;;;19.87;9.57;;;;;;;7.79;73.35;101160.45;124534;1099;104242;-73
2023/03/19 11:03:30;;;;;;;18.17;9.10;;;;;;;7.80;73.59;101158.73;124513;1099;104091;-73
2023/03/19 11:06:18;;;;;;;19.45;9.23;;;;;;;7.84;73.81;101158.99;124515;1099;104179;-75
2023/03/19 11:08:57;;;;;;;22.17;9.43;;;;;;;7.94;73.57;101156.91;124419;1099;104239;-74
2023/03/19 11:11:41;;;;;;;16.03;8.00;;;;;;;7.99;73.30;101161.56;124333;1099;102029;-73
2023/03/19 11:14:17;;;;;;;17.83;8.63;;;;;;;8.02;73.04;101164.34;124287;1099;104299;-73
2023/03/19 11:16:51;;;;;;;19.03;8.80;;;;;;;8.00;72.77;101159.87;124525;1099;104274;-75
2023/03/19 11:19:25;;;;;;;17.20;8.20;;;;;;;8.00;73.52;101159.87;124282;1099;104254;-75
2023/03/19 11:22:10;;;;;;;18.70;8.80;;;;;;;8.03;72.82;101145.25;124518;1099;102009;-75
2023/03/19 11:24:48;;;;;;;18.55;9.00;;;;;;;8.04;73.18;101152.28;124648;1099;103826;-74
2023/03/19 11:27:27;;;;;;;17.80;8.50;;;;;;;8.03;73.06;101150.47;124510;1099;108339;-75
2023/03/19 11:29:59;;;;;;;19.67;8.83;;;;;;;8.01;73.04;101153.80;124587;1099;104191;-75
2023/03/19 11:33:05;;;;;;;18.40;8.50;;;;;;;8.00;73.01;101146.80;124517;1099;104248;-75
2023/03/19 11:35:40;;;;;;;19.47;9.23;;;;;;;8.04;73.02;101148.75;124361;1099;104278;-76
2023/03/19 11:38:18;;;;;;;28.43;11.47;;;;;;;7.98;72.44;101145.79;124536;1099;104217;-72
2023/03/19 11:40:58;;;;;;;35.87;14.43;;;;;;;7.95;72.06;101143.92;124651;1099;104245;-73
2023/03/19 11:43:45;;;;;;;23.87;10.83;;;;;;;7.95;72.62;101145.62;124718;1099;104181;-74